Time;durP1;ratioP1;P1;durP2;ratioP2;P2;SDS_P1;SDS_P2;PMS_P1;PMS_P2;Temp;Humidity;BMP_temperature;BMP_pressure;BME280_temperature;BME280_humidity;BME280_pressure;Samples;Min_cycle;Max_cycle;Signal;HPM_P1;HPM_P2
2024/03/30 00:02:21;;;;;;;;;;;;;;;7.44;56.27;93788.97;4920648;29;20387;-68
2024/03/30 00:04:46;;;;;;;;;;;;;;;7.59;55.34;93774.72;4923443;29;19926;-70
2024/03/30 00:07:12;;;;;;;;;;;;;;;7.69;53.74;93769.84;4923036;28;20077;-70
2024/03/30 00:09:37;;;;;;;;;;;;;;;7.59;55.84;93775.56;4922762;29;19923;-70
2024/03/30 00:12:02;;;;;;;;;;;;;;;7.38;57.29;93785.31;4937263;28;19923;-69
2024/03/30 00:14:27;;;;;;;;;;;;;;;7.75;54.22;93779.59;4922920;28;19926;-70
2024/03/30 00:16:53;;;;;;;;;;;;;;;7.78;53.64;93779.22;4923134;29;19954;-70
2024/03/30 00:19:18;;;;;;;;;;;;;;;7.82;52.27;93762.94;4934968;28;19926;-72
2024/03/30 00:21:43;;;;;;;;;;;;;;;7.93;52.72;93751.69;4948768;28;19934;-72
2024/03/30 00:24:08;;;;;;;;;;;;;;;8.00;51.27;93749.84;4924560;28;20013;-72
2024/03/30 00:26:34;;;;;;;;;;;;;;;7.98;51.88;93740.47;4922743;28;20581;-71
2024/03/30 00:28:59;;;;;;;;;;;;;;;7.98;52.25;93720.09;4923125;29;19933;-73
2024/03/30 00:31:27;;;;;;;;;;;;;;;7.94;51.46;93732.13;4922888;28;19931;-72
2024/03/30 00:33:53;;;;;;;;;;;;;;;8.05;51.40;93738.63;4922356;29;19931;-73
2024/03/30 00:36:18;;;;;;;;;;;;;;;8.08;50.83;93740.03;4922928;28;19934;-72
2024/03/30 00:38:45;;;;;;;;;;;;;;;8.11;50.46;93739.63;4922485;29;19927;-72
2024/03/30 00:41:10;;;;;;;;;;;;;;;7.98;52.69;93733.34;4921758;29;20356;-72
2024/03/30 00:43:36;;;;;;;;;;;;;;;8.02;51.28;93718.66;4921705;28;19938;-73
2024/03/30 00:46:01;;;;;;;;;;;;;;;8.03;50.39;93714.16;4920916;28;20017;-71
2024/03/30 00:48:26;;;;;;;;;;;;;;;8.03;50.93;93714.97;4921965;29;20025;-72
2024/03/30 00:50:52;;;;;;;;;;;;;;;8.02;50.63;93716.00;4922146;29;20167;-71
2024/03/30 00:53:17;;;;;;;;;;;;;;;8.04;50.51;93713.13;4922328;29;19938;-73
2024/03/30 00:55:42;;;;;;;;;;;;;;;8.03;50.53;93717.63;4937757;28;19968;-71
2024/03/30 00:58:08;;;;;;;;;;;;;;;8.04;50.50;93710.50;4939992;28;19934;-72
2024/03/30 01:00:33;;;;;;;;;;;;;;;8.05;50.76;93709.47;4919571;29;19970;-72
2024/03/30 01:02:58;;;;;;;;;;;;;;;8.01;51.37;93717.03;4921680;28;19974;-72
2024/03/30 01:05:23;;;;;;;;;;;;;;;8.00;51.40;93710.09;4922821;29;19927;-72
2024/03/30 01:07:49;;;;;;;;;;;;;;;8.01;51.05;93706.44;4922171;28;19953;-71
2024/03/30 01:10:14;;;;;;;;;;;;;;;8.02;49.95;93710.69;4922686;29;19930;-71
2024/03/30 01:12:39;;;;;;;;;;;;;;;8.05;50.56;93710.28;4923391;29;19923;-71
2024/03/30 01:15:05;;;;;;;;;;;;;;;7.98;51.13;93698.06;4924053;28;19927;-73
2024/03/30 01:17:33;;;;;;;;;;;;;;;7.78;53.41;93707.69;4923182;29;19930;-71
2024/03/30 01:19:59;;;;;;;;;;;;;;;8.03;50.99;93696.41;4951709;28;20016;-72
2024/03/30 01:22:24;;;;;;;;;;;;;;;8.12;50.87;93702.31;4954204;28;19946;-72
2024/03/30 01:24:49;;;;;;;;;;;;;;;8.22;51.35;93699.22;4956857;28;20428;-72
2024/03/30 01:27:15;;;;;;;;;;;;;;;7.92;52.23;93692.59;4957922;28;20020;-71
2024/03/30 01:29:40;;;;;;;;;;;;;;;8.23;50.67;93686.78;4951489;28;19932;-71
2024/03/30 01:32:06;;;;;;;;;;;;;;;8.28;52.27;93689.59;4956424;28;19926;-73
2024/03/30 01:34:32;;;;;;;;;;;;;;;8.26;51.71;93679.19;4937557;28;19956;-72
2024/03/30 01:36:57;;;;;;;;;;;;;;;8.20;52.31;93684.53;4922204;29;19957;-72
2024/03/30 01:39:22;;;;;;;;;;;;;;;8.31;51.91;93675.94;4937954;28;19934;-71
2024/03/30 01:41:47;;;;;;;;;;;;;;;8.23;51.96;93682.28;4945033;28;19934;-72
2024/03/30 01:44:14;;;;;;;;;;;;;;;8.27;53.16;93685.31;4922704;28;20045;-71
2024/03/30 01:46:39;;;;;;;;;;;;;;;8.27;52.27;93687.97;4933377;28;19926;-72
2024/03/30 01:49:05;;;;;;;;;;;;;;;8.15;53.28;93683.34;4946289;28;19966;-72
2024/03/30 01:51:30;;;;;;;;;;;;;;;8.25;52.84;93685.53;4932640;28;19926;-71
2024/03/30 01:53:55;;;;;;;;;;;;;;;8.14;53.30;93684.38;4921843;28;19927;-71
2024/03/30 01:56:20;;;;;;;;;;;;;;;8.02;53.39;93684.19;4953891;28;20626;-72
2024/03/30 01:58:47;;;;;;;;;;;;;;;8.15;52.76;93683.34;4944933;28;19926;-72
2024/03/30 02:01:13;;;;;;;;;;;;;;;7.99;53.61;93683.81;4941458;28;19936;-72
2024/03/30 02:03:38;;;;;;;;;;;;;;;7.85;54.83;93677.75;4927663;28;20049;-72
2024/03/30 02:06:03;;;;;;;;;;;;;;;7.82;53.86;93688.75;4918615;28;19938;-71
2024/03/30 02:08:29;;;;;;;;;;;;;;;7.78;54.34;93678.56;4936992;29;19915;-73
2024/03/30 02:10:55;;;;;;;;;;;;;;;7.59;54.22;93671.44;4921738;28;19978;-71
2024/03/30 02:13:21;;;;;;;;;;;;;;;7.83;53.29;93679.78;4922141;29;20400;-71
2024/03/30 02:15:46;;;;;;;;;;;;;;;8.01;54.01;93687.06;4935206;28;19937;-72
2024/03/30 02:18:11;;;;;;;;;;;;;;;8.03;52.93;93691.13;4937922;28;20546;-72
2024/03/30 02:20:36;;;;;;;;;;;;;;;8.09;52.25;93686.03;4920632;29;19930;-72
2024/03/30 02:23:02;;;;;;;;;;;;;;;7.98;51.18;93684.81;4921250;28;19985;-72
2024/03/30 02:25:27;;;;;;;;;;;;;;;7.86;51.98;93680.16;4921838;29;19926;-71
2024/03/30 02:27:52;;;;;;;;;;;;;;;7.99;51.96;93686.47;4921648;28;19931;-71
2024/03/30 02:30:24;;;;;;;;;;;;;;;8.02;52.02;93689.50;4926886;28;19926;-72
2024/03/30 02:32:50;;;;;;;;;;;;;;;8.15;50.79;93682.50;4939721;28;19929;-73
2024/03/30 02:35:15;;;;;;;;;;;;;;;8.09;50.58;93675.41;4928244;28;20384;-72
2024/03/30 02:37:41;;;;;;;;;;;;;;;8.08;50.46;93677.25;4921944;29;19929;-71
2024/03/30 02:40:07;;;;;;;;;;;;;;;7.84;52.93;93686.69;4939406;28;19943;-69
2024/03/30 02:42:33;;;;;;;;;;;;;;;7.83;52.13;93677.13;4938924;28;19934;-69
2024/03/30 02:44:58;;;;;;;;;;;;;;;7.95;51.07;93678.09;4921910;29;20444;-70
2024/03/30 02:47:23;;;;;;;;;;;;;;;7.91;49.82;93674.25;4921484;28;20320;-70
2024/03/30 02:49:48;;;;;;;;;;;;;;;7.87;50.35;93681.81;4920716;29;19933;-70
2024/03/30 02:52:14;;;;;;;;;;;;;;;7.85;50.61;93672.44;4921714;28;19977;-70
2024/03/30 02:54:39;;;;;;;;;;;;;;;7.78;50.44;93675.09;4920878;28;19927;-69
2024/03/30 02:57:04;;;;;;;;;;;;;;;7.87;50.38;93671.22;4923028;29;19927;-70
2024/03/30 02:59:30;;;;;;;;;;;;;;;7.86;49.99;93672.22;4917063;29;20671;-71
2024/03/30 03:01:55;;;;;;;;;;;;;;;7.72;52.28;93668.75;4925203;29;19937;-69
2024/03/30 03:04:20;;;;;;;;;;;;;;;7.74;52.45;93669.38;4924451;28;20425;-69
2024/03/30 03:06:45;;;;;;;;;;;;;;;7.84;52.35;93670.78;4925954;28;19927;-70
2024/03/30 03:09:10;;;;;;;;;;;;;;;7.79;52.28;93664.28;4925600;29;19927;-69
2024/03/30 03:11:36;;;;;;;;;;;;;;;7.85;52.28;93669.78;4926779;28;20612;-69
2024/03/30 03:14:01;;;;;;;;;;;;;;;7.71;52.88;93664.50;4924721;28;20459;-70
2024/03/30 03:16:26;;;;;;;;;;;;;;;7.75;52.45;93657.75;4924883;29;20384;-69
2024/03/30 03:18:51;;;;;;;;;;;;;;;7.75;52.97;93667.56;4924568;28;19926;-71
2024/03/30 03:21:17;;;;;;;;;;;;;;;7.83;52.00;93662.06;4925084;29;20014;-69
2024/03/30 03:23:43;;;;;;;;;;;;;;;7.88;51.87;93664.88;4941322;28;20066;-71
2024/03/30 03:26:08;;;;;;;;;;;;;;;7.91;51.33;93655.69;4946381;28;20307;-71
2024/03/30 03:28:33;;;;;;;;;;;;;;;7.94;52.14;93655.28;4956234;28;19923;-71
2024/03/30 03:30:59;;;;;;;;;;;;;;;7.96;52.14;93650.56;4945543;28;19937;-72
2024/03/30 03:33:24;;;;;;;;;;;;;;;7.92;52.23;93652.84;4951256;28;20600;-71
2024/03/30 03:35:49;;;;;;;;;;;;;;;7.90;52.71;93654.91;4924151;28;19926;-71
2024/03/30 03:38:15;;;;;;;;;;;;;;;7.94;51.86;93651.81;4928961;28;20376;-72
2024/03/30 03:40:40;;;;;;;;;;;;;;;7.93;52.71;93648.38;4948861;28;19966;-71
2024/03/30 03:43:05;;;;;;;;;;;;;;;7.84;52.78;93645.13;4942268;28;19934;-72
2024/03/30 03:45:30;;;;;;;;;;;;;;;7.84;51.97;93649.59;4924533;29;19950;-73
2024/03/30 03:47:56;;;;;;;;;;;;;;;7.84;51.41;93644.31;4944585;28;19944;-73
2024/03/30 03:50:21;;;;;;;;;;;;;;;7.92;50.53;93641.41;4944566;28;20317;-73
2024/03/30 03:52:46;;;;;;;;;;;;;;;7.65;52.48;93644.94;4924498;29;19923;-75
2024/03/30 03:55:11;;;;;;;;;;;;;;;7.74;53.07;93645.53;4933857;28;19973;-71
2024/03/30 03:57:37;;;;;;;;;;;;;;;7.77;52.57;93639.03;4943544;29;20307;-72
2024/03/30 04:00:03;;;;;;;;;;;;;;;7.78;52.03;93636.19;4940689;28;19961;-72
2024/03/30 04:02:28;;;;;;;;;;;;;;;7.80;52.24;93641.28;4941692;28;19945;-74
2024/03/30 04:04:53;;;;;;;;;;;;;;;7.80;51.59;93641.28;4943040;28;20004;-72
2024/03/30 04:07:20;;;;;;;;;;;;;;;7.75;52.66;93647.16;4942544;28;19933;-74
2024/03/30 04:09:45;;;;;;;;;;;;;;;7.72;52.43;93644.91;4942551;28;19926;-72
2024/03/30 04:12:10;;;;;;;;;;;;;;;7.89;51.16;93642.66;4941303;28;19954;-73
2024/03/30 04:14:36;;;;;;;;;;;;;;;7.90;52.28;93641.66;4942407;28;20014;-70
2024/03/30 04:17:01;;;;;;;;;;;;;;;7.90;52.47;93644.31;4942995;29;19926;-72
2024/03/30 04:19:26;;;;;;;;;;;;;;;7.79;51.12;93643.09;4942450;28;20017;-75
2024/03/30 04:21:55;;;;;;;;;;;;;;;7.91;50.36;93645.09;4942814;28;19985;-72
2024/03/30 04:24:21;;;;;;;;;;;;;;;7.79;51.73;93642.31;4942405;28;19978;-71
2024/03/30 04:26:46;;;;;;;;;;;;;;;7.95;50.75;93642.84;4942791;28;20024;-73
2024/03/30 04:29:11;;;;;;;;;;;;;;;7.95;50.23;93648.16;4942482;28;19933;-71
2024/03/30 04:31:36;;;;;;;;;;;;;;;7.86;50.15;93653.66;4942754;28;19930;-74
2024/03/30 04:34:02;;;;;;;;;;;;;;;7.89;50.72;93658.56;4942147;28;19992;-74
2024/03/30 04:36:27;;;;;;;;;;;;;;;7.93;49.88;93656.31;4942681;28;19930;-75
2024/03/30 04:38:53;;;;;;;;;;;;;;;7.91;50.02;93661.81;4942005;28;19930;-71
2024/03/30 04:41:18;;;;;;;;;;;;;;;7.91;50.85;93659.16;4938651;28;19933;-73
2024/03/30 04:43:43;;;;;;;;;;;;;;;7.95;49.70;93664.84;4939846;28;19926;-71
2024/03/30 04:46:08;;;;;;;;;;;;;;;7.93;50.11;93664.25;4942346;28;19929;-74
2024/03/30 04:48:34;;;;;;;;;;;;;;;7.90;50.55;93670.78;4941958;28;20430;-71
2024/03/30 04:51:02;;;;;;;;;;;;;;;7.85;50.18;93667.16;4941035;28;20123;-71
2024/03/30 04:53:33;;;;;;;;;;;;;;;7.84;50.62;93670.78;4942738;28;19976;-74
2024/03/30 04:55:59;;;;;;;;;;;;;;;7.73;50.45;93675.69;4942058;28;19933;-70
2024/03/30 04:58:25;;;;;;;;;;;;;;;7.75;50.67;93671.00;4940941;28;19927;-71
2024/03/30 05:00:51;;;;;;;;;;;;;;;7.71;50.78;93675.09;4937494;28;19934;-73
2024/03/30 05:03:16;;;;;;;;;;;;;;;7.72;50.27;93678.56;4941966;28;20510;-72
2024/03/30 05:05:42;;;;;;;;;;;;;;;7.68;50.46;93677.34;4941563;28;19923;-74
2024/03/30 05:08:07;;;;;;;;;;;;;;;7.65;50.88;93678.56;4935169;28;19937;-71
2024/03/30 05:10:32;;;;;;;;;;;;;;;7.75;50.81;93678.94;4940721;28;19930;-74
2024/03/30 05:12:58;;;;;;;;;;;;;;;7.74;50.05;93672.03;4942159;29;19922;-71
2024/03/30 05:15:23;;;;;;;;;;;;;;;7.73;51.11;93675.69;4940890;28;19976;-72
2024/03/30 05:17:48;;;;;;;;;;;;;;;7.77;50.68;93670.81;4941936;28;20021;-73
2024/03/30 05:22:57;;;;;;;;;;;;;;;7.86;50.90;93672.22;4941017;28;19976;-71
2024/03/30 05:25:23;;;;;;;;;;;;;;;7.92;49.86;93673.22;4941221;28;19969;-73
2024/03/30 05:27:48;;;;;;;;;;;;;;;7.94;50.31;93676.47;4941642;28;20020;-75
2024/03/30 05:30:14;;;;;;;;;;;;;;;8.00;49.97;93662.41;4939619;28;19961;-73
2024/03/30 05:32:39;;;;;;;;;;;;;;;8.10;49.94;93666.44;4941020;28;20762;-72
2024/03/30 05:35:06;;;;;;;;;;;;;;;8.05;50.38;93653.81;4940100;28;20385;-74
2024/03/30 05:37:31;;;;;;;;;;;;;;;8.07;50.45;93664.19;4940832;29;19926;-72
2024/03/30 05:39:56;;;;;;;;;;;;;;;8.12;49.94;93657.25;4940884;28;19928;-75
2024/03/30 05:42:21;;;;;;;;;;;;;;;8.20;49.82;93660.69;4927936;28;20499;-75
2024/03/30 05:44:47;;;;;;;;;;;;;;;8.24;50.31;93649.44;4939800;28;19973;-77
2024/03/30 05:47:12;;;;;;;;;;;;;;;8.17;49.53;93657.41;4940864;28;20005;-77
2024/03/30 05:49:37;;;;;;;;;;;;;;;8.14;51.44;93649.09;4941311;28;19977;-74
2024/03/30 05:52:03;;;;;;;;;;;;;;;8.10;51.21;93648.72;4940995;28;19966;-75
2024/03/30 05:54:28;;;;;;;;;;;;;;;8.14;50.44;93646.44;4936614;28;19926;-78
2024/03/30 05:56:53;;;;;;;;;;;;;;;8.20;51.11;93652.72;4941438;28;19931;-74
2024/03/30 05:59:18;;;;;;;;;;;;;;;8.16;52.08;93641.75;4939338;28;20548;-78
2024/03/30 06:01:44;;;;;;;;;;;;;;;8.25;49.67;93653.72;4941018;29;20101;-74
2024/03/30 06:04:09;;;;;;;;;;;;;;;8.26;51.20;93642.09;4940808;28;19922;-76
2024/03/30 06:06:35;;;;;;;;;;;;;;;8.38;51.27;93644.06;4940881;28;20037;-74
2024/03/30 06:09:00;;;;;;;;;;;;;;;8.49;49.95;93645.22;4940931;29;20359;-75
2024/03/30 06:11:25;;;;;;;;;;;;;;;8.38;51.54;93636.13;4940589;28;19926;-74
2024/03/30 06:13:50;;;;;;;;;;;;;;;8.65;49.17;93646.56;4940866;28;19972;-75
2024/03/30 06:16:16;;;;;;;;;;;;;;;8.70;49.34;93636.09;4939822;28;20300;-75
2024/03/30 06:18:41;;;;;;;;;;;;;;;8.73;48.28;93646.28;4940704;28;19940;-75
2024/03/30 06:21:06;;;;;;;;;;;;;;;8.78;49.39;93633.19;4940428;28;20004;-74
2024/03/30 06:23:31;;;;;;;;;;;;;;;8.90;48.65;93640.47;4940299;28;19938;-75
2024/03/30 06:25:56;;;;;;;;;;;;;;;8.95;47.47;93638.03;4955072;28;20115;-75
2024/03/30 06:28:22;;;;;;;;;;;;;;;8.97;48.93;93629.84;4940392;28;19926;-75
2024/03/30 06:30:47;;;;;;;;;;;;;;;9.04;49.01;93636.72;4938760;29;19930;-75
2024/03/30 06:33:12;;;;;;;;;;;;;;;9.23;47.44;93642.06;4940193;28;19929;-75
2024/03/30 06:35:38;;;;;;;;;;;;;;;9.33;46.88;93631.78;4938772;29;20018;-75
2024/03/30 06:38:04;;;;;;;;;;;;;;;9.44;47.13;93637.38;4940228;28;20458;-74
2024/03/30 06:45:56;;;;;;;;;;;;;;;9.74;46.89;93631.34;4940468;28;19932;-75
2024/03/30 06:48:22;;;;;;;;;;;;;;;9.79;47.60;93636.81;4940014;28;20339;-74
2024/03/30 06:50:47;;;;;;;;;;;;;;;9.94;45.96;93633.78;4940294;28;19969;-75
2024/03/30 06:53:12;;;;;;;;;;;;;;;10.05;46.42;93644.69;4941023;28;19926;-75
2024/03/30 06:55:38;;;;;;;;;;;;;;;10.07;46.24;93645.31;4939117;29;19931;-75
2024/03/30 06:58:03;;;;;;;;;;;;;;;10.23;45.57;93651.84;4940242;28;19929;-75
2024/03/30 07:00:28;;;;;;;;;;;;;;;10.32;45.40;93653.19;4939336;28;19930;-75
2024/03/30 07:02:53;;;;;;;;;;;;;;;10.34;45.77;93658.28;4940199;28;19931;-75
2024/03/30 07:05:19;;;;;;;;;;;;;;;10.40;45.48;93653.94;4940620;28;20459;-75
2024/03/30 07:07:44;;;;;;;;;;;;;;;10.41;45.06;93658.19;4940598;28;19966;-75
2024/03/30 07:10:09;;;;;;;;;;;;;;;10.49;44.43;93663.19;4939986;28;19937;-75
2024/03/30 07:12:36;;;;;;;;;;;;;;;10.58;44.40;93661.03;4938886;29;19926;-75
2024/03/30 07:15:01;;;;;;;;;;;;;;;10.58;44.70;93664.50;4940354;28;20454;-75
2024/03/30 07:17:27;;;;;;;;;;;;;;;10.57;43.98;93673.53;4940752;28;20033;-75
2024/03/30 07:19:52;;;;;;;;;;;;;;;10.62;45.27;93672.84;4940072;28;19980;-76
2024/03/30 07:22:17;;;;;;;;;;;;;;;10.75;43.88;93677.19;4940288;28;19922;-75
2024/03/30 07:24:42;;;;;;;;;;;;;;;10.85;43.95;93680.09;4939353;28;19942;-75
2024/03/30 07:27:08;;;;;;;;;;;;;;;10.87;44.32;93683.34;4939972;28;19926;-75
2024/03/30 07:29:33;;;;;;;;;;;;;;;10.88;44.22;93679.66;4940341;28;19970;-74
2024/03/30 07:32:00;;;;;;;;;;;;;;;10.88;44.86;93678.81;4939634;28;19973;-75
2024/03/30 07:34:26;;;;;;;;;;;;;;;10.93;43.31;93686.13;4934815;29;19927;-75
2024/03/30 07:36:51;;;;;;;;;;;;;;;11.03;43.39;93697.06;4938785;28;19937;-74
2024/03/30 07:39:16;;;;;;;;;;;;;;;11.05;42.97;93694.97;4939116;28;19926;-75
2024/03/30 07:41:41;;;;;;;;;;;;;;;11.18;43.49;93703.84;4935977;29;19926;-74
2024/03/30 07:44:07;;;;;;;;;;;;;;;11.28;42.43;93703.28;4940030;28;20588;-75
2024/03/30 07:46:32;;;;;;;;;;;;;;;11.37;43.20;93701.88;4943171;28;19930;-75
2024/03/30 07:48:57;;;;;;;;;;;;;;;11.56;42.72;93710.56;4943347;28;19934;-75
2024/03/30 07:51:22;;;;;;;;;;;;;;;11.63;42.40;93711.28;4943047;28;19926;-75
2024/03/30 07:53:48;;;;;;;;;;;;;;;11.73;41.79;93704.56;4943883;29;19931;-75
2024/03/30 07:56:13;;;;;;;;;;;;;;;11.90;42.15;93710.81;4943613;28;19930;-75
2024/03/30 07:58:38;;;;;;;;;;;;;;;12.05;41.45;93711.38;4942832;28;19927;-74
2024/03/30 08:01:06;;;;;;;;;;;;;;;12.13;41.79;93695.84;4938411;29;19930;-74
2024/03/30 08:03:32;;;;;;;;;;;;;;;12.24;39.97;93706.75;4942811;28;19927;-74
2024/03/30 08:05:59;;;;;;;;;;;;;;;12.42;42.13;93698.56;4942405;28;19926;-75
2024/03/30 08:08:24;;;;;;;;;;;;;;;12.53;40.50;93699.59;4938048;29;20692;-75
2024/03/30 08:10:49;;;;;;;;;;;;;;;12.80;40.13;93703.53;4931706;28;19926;-75
2024/03/30 08:13:15;;;;;;;;;;;;;;;12.92;39.96;93698.94;4941619;29;20049;-75
2024/03/30 08:15:40;;;;;;;;;;;;;;;13.09;40.10;93703.53;4942224;28;19930;-74
2024/03/30 08:18:06;;;;;;;;;;;;;;;13.25;39.98;93703.78;4942284;28;20431;-74
2024/03/30 08:20:31;;;;;;;;;;;;;;;13.30;38.69;93701.22;4942960;28;19927;-75
2024/03/30 08:22:56;;;;;;;;;;;;;;;13.41;38.72;93700.34;4942409;28;19933;-75
2024/03/30 08:25:21;;;;;;;;;;;;;;;13.42;38.66;93696.59;4942771;28;19980;-75
2024/03/30 08:27:46;;;;;;;;;;;;;;;13.68;37.69;93705.03;4942244;28;20447;-74
2024/03/30 08:30:12;;;;;;;;;;;;;;;13.74;37.25;93699.75;4942503;28;19926;-75
2024/03/30 08:32:37;;;;;;;;;;;;;;;13.82;37.87;93693.97;4943025;28;19923;-76
2024/03/30 08:35:02;;;;;;;;;;;;;;;13.97;37.68;93687.25;4942314;28;19926;-74
2024/03/30 08:37:28;;;;;;;;;;;;;;;13.95;37.06;93685.63;4943407;28;20017;-75
2024/03/30 08:39:53;;;;;;;;;;;;;;;13.97;37.47;93689.94;4941662;28;20017;-75
2024/03/30 08:42:18;;;;;;;;;;;;;;;13.94;37.30;93693.91;4940925;28;19927;-74
2024/03/30 08:44:43;;;;;;;;;;;;;;;14.25;36.89;93690.81;4938533;28;20132;-74
2024/03/30 08:47:10;;;;;;;;;;;;;;;14.18;36.58;93686.47;4942048;28;19985;-74
2024/03/30 08:49:35;;;;;;;;;;;;;;;14.44;36.51;93684.09;4939505;28;19926;-77
2024/03/30 08:52:00;;;;;;;;;;;;;;;14.41;36.05;93679.25;4939886;28;19961;-75
2024/03/30 08:54:26;;;;;;;;;;;;;;;14.59;35.97;93674.63;4940803;28;19926;-77
2024/03/30 08:56:51;;;;;;;;;;;;;;;14.80;35.91;93674.88;4940043;28;20175;-77
2024/03/30 08:59:16;;;;;;;;;;;;;;;14.62;35.37;93671.44;4937215;29;19926;-75
2024/03/30 09:01:41;;;;;;;;;;;;;;;14.88;35.63;93682.44;4941129;28;20335;-72
2024/03/30 09:04:06;;;;;;;;;;;;;;;15.10;35.07;93684.28;4941396;28;20062;-73
2024/03/30 09:06:32;;;;;;;;;;;;;;;15.08;34.71;93684.53;4942530;28;19973;-75
2024/03/30 09:08:57;;;;;;;;;;;;;;;14.96;34.63;93686.56;4942047;29;19926;-74
2024/03/30 09:11:22;;;;;;;;;;;;;;;15.20;34.19;93689.69;4942341;28;19927;-74
2024/03/30 09:13:48;;;;;;;;;;;;;;;15.27;34.21;93691.38;4942049;28;19930;-74
2024/03/30 09:16:13;;;;;;;;;;;;;;;15.39;33.90;93691.19;4941194;28;20044;-74
2024/03/30 09:18:38;;;;;;;;;;;;;;;15.47;34.19;93698.78;4941657;28;19957;-73
2024/03/30 09:21:04;;;;;;;;;;;;;;;15.38;33.78;93698.44;4941533;28;20058;-73
2024/03/30 09:23:30;;;;;;;;;;;;;;;15.52;33.85;93695.31;4941916;28;20390;-71
2024/03/30 09:25:55;;;;;;;;;;;;;;;15.63;33.90;93691.69;4940815;28;20013;-74
2024/03/30 09:28:20;;;;;;;;;;;;;;;15.76;33.56;93698.47;4922556;29;20657;-76
2024/03/30 09:30:46;;;;;;;;;;;;;;;15.78;33.42;93699.03;4922234;29;20492;-75
2024/03/30 09:33:11;;;;;;;;;;;;;;;15.92;33.62;93699.41;4922694;29;19996;-75
2024/03/30 09:35:40;;;;;;;;;;;;;;;15.92;33.73;93703.94;4936055;28;19922;-76
2024/03/30 09:38:05;;;;;;;;;;;;;;;16.03;33.21;93704.81;4940109;28;20005;-73
2024/03/30 09:40:32;;;;;;;;;;;;;;;16.08;33.08;93704.84;4939009;28;19969;-75
2024/03/30 09:42:57;;;;;;;;;;;;;;;16.16;33.38;93706.22;4928937;28;20021;-73
2024/03/30 09:45:23;;;;;;;;;;;;;;;16.29;34.11;93707.63;4920906;29;20009;-72
2024/03/30 09:47:48;;;;;;;;;;;;;;;16.23;32.58;93710.31;4937460;28;19941;-72
2024/03/30 09:50:13;;;;;;;;;;;;;;;16.35;33.17;93704.75;4939559;28;19922;-74
2024/03/30 09:52:41;;;;;;;;;;;;;;;16.55;32.87;93710.47;4922395;29;20041;-74
2024/03/30 09:55:15;;;;;;;;;;;;;;;16.53;30.92;93713.41;4922135;29;19985;-72
2024/03/30 09:57:43;;;;;;;;;;;;;;;16.57;31.50;93714.50;4922083;29;19981;-73
2024/03/30 10:00:12;;;;;;;;;;;;;;;16.75;29.75;93715.91;4916091;28;20128;-72
2024/03/30 10:02:38;;;;;;;;;;;;;;;16.69;31.05;93716.94;4920143;29;20026;-74
2024/03/30 10:05:03;;;;;;;;;;;;;;;16.87;31.23;93722.94;4936473;29;20021;-73
2024/03/30 10:07:30;;;;;;;;;;;;;;;17.02;29.96;93722.97;4933517;28;19931;-75
2024/03/30 10:09:57;;;;;;;;;;;;;;;17.01;28.48;93725.91;4945890;28;19922;-74
2024/03/30 10:12:33;;;;;;;;;;;;;;;17.04;28.65;93722.72;4942213;28;19922;-74
2024/03/30 10:14:59;;;;;;;;;;;;;;;16.53;29.96;93724.16;4934231;28;19926;-67
2024/03/30 10:17:24;;;;;;;;;;;;;;;16.26;30.89;93720.50;4921256;29;19923;-67
2024/03/30 10:19:49;;;;;;;;;;;;;;;16.36;29.94;93717.09;4919808;29;20733;-67
2024/03/30 10:22:15;;;;;;;;;;;;;;;16.17;31.31;93716.69;4920365;28;19930;-67
2024/03/30 10:24:40;;;;;;;;;;;;;;;16.77;31.47;93715.66;4920810;29;20025;-65
2024/03/30 10:27:05;;;;;;;;;;;;;;;16.49;30.32;93713.13;4931123;28;19974;-66
2024/03/30 10:29:30;;;;;;;;;;;;;;;16.42;28.40;93703.72;4944088;28;19966;-67
2024/03/30 10:31:56;;;;;;;;;;;;;;;14.83;30.86;93727.94;4925282;28;19958;-66
2024/03/30 10:34:21;;;;;;;;;;;;;;;14.19;33.14;93728.25;4920821;28;19985;-65
2024/03/30 10:36:47;;;;;;;;;;;;;;;14.77;32.92;93742.31;4921673;29;19966;-66
2024/03/30 10:39:13;;;;;;;;;;;;;;;15.73;32.85;93745.41;4919980;28;20412;-66
2024/03/30 10:41:40;;;;;;;;;;;;;;;15.02;33.39;93746.38;4916409;29;19979;-67
2024/03/30 10:44:05;;;;;;;;;;;;;;;15.94;32.66;93748.22;4920817;28;19953;-65
2024/03/30 10:46:30;;;;;;;;;;;;;;;16.38;31.93;93746.38;4926655;28;20598;-67
2024/03/30 10:48:56;;;;;;;;;;;;;;;16.01;31.90;93750.69;4954879;28;19923;-65
2024/03/30 10:51:23;;;;;;;;;;;;;;;15.94;32.14;93740.19;4928195;28;19977;-66
2024/03/30 10:53:48;;;;;;;;;;;;;;;16.39;31.65;93726.53;4921551;29;20262;-66
2024/03/30 10:56:13;;;;;;;;;;;;;;;16.58;31.69;93729.53;4939213;28;20441;-67
2024/03/30 10:58:39;;;;;;;;;;;;;;;16.80;31.24;93728.56;4938665;28;19922;-66
2024/03/30 11:01:05;;;;;;;;;;;;;;;16.39;31.31;93721.16;4934513;28;20237;-67
2024/03/30 11:03:31;;;;;;;;;;;;;;;16.46;28.60;93728.97;4939628;28;19926;-66
2024/03/30 11:05:56;;;;;;;;;;;;;;;16.58;29.92;93723.34;4939951;29;20708;-65
2024/03/30 11:08:21;;;;;;;;;;;;;;;16.54;30.63;93728.47;4938365;29;20376;-67
2024/03/30 11:10:46;;;;;;;;;;;;;;;16.54;30.91;93728.47;4939975;28;19926;-67
2024/03/30 11:13:11;;;;;;;;;;;;;;;16.56;31.47;93733.56;4940325;29;19927;-66
2024/03/30 11:15:41;;;;;;;;;;;;;;;16.54;32.13;93738.38;4940226;28;19969;-66
2024/03/30 11:18:08;;;;;;;;;;;;;;;16.40;31.33;93725.44;4939935;28;19926;-67
2024/03/30 11:20:36;;;;;;;;;;;;;;;16.41;31.87;93742.38;4942366;29;20017;-66
2024/03/30 11:23:07;;;;;;;;;;;;;;;16.22;31.64;93743.56;4943102;28;20041;-65
2024/03/30 11:25:33;;;;;;;;;;;;;;;15.42;31.91;93745.13;4938603;29;19922;-66
2024/03/30 11:28:06;;;;;;;;;;;;;;;15.68;31.63;93739.19;4940655;28;20674;-66
2024/03/30 11:30:45;;;;;;;;;;;;;;;14.81;31.89;93744.25;4943521;28;20383;-67
2024/03/30 11:33:21;;;;;;;;;;;;;;;14.93;33.42;93749.47;4942902;29;19926;-67
2024/03/30 11:35:58;;;;;;;;;;;;;;;15.28;31.90;93747.41;4943283;28;19965;-65
2024/03/30 11:38:23;;;;;;;;;;;;;;;15.57;30.50;93746.38;4943215;28;19950;-66
2024/03/30 11:40:52;;;;;;;;;;;;;;;15.63;31.24;93748.00;4939235;29;19927;-66
2024/03/30 11:43:29;;;;;;;;;;;;;;;15.50;31.21;93738.47;4956486;28;19933;-66
2024/03/30 11:45:54;;;;;;;;;;;;;;;15.47;31.51;93736.31;4943248;28;19922;-66
2024/03/30 11:48:19;;;;;;;;;;;;;;;14.91;30.41;93727.50;4942197;29;20340;-65
2024/03/30 11:50:45;;;;;;;;;;;;;;;15.06;31.48;93739.44;4943167;28;20347;-66
2024/03/30 11:53:17;;;;;;;;;;;;;;;15.31;31.63;93736.19;4942926;29;20108;-65
2024/03/30 11:55:43;;;;;;;;;;;;;;;15.63;31.41;93745.31;4938342;28;20517;-65
2024/03/30 11:58:10;;;;;;;;;;;;;;;15.61;29.37;93740.22;4942817;28;20292;-66
2024/03/30 12:00:58;;;;;;;;;;;;;;;15.71;30.38;93736.78;4940924;29;19926;-69
2024/03/30 12:03:24;;;;;;;;;;;;;;;15.93;29.63;93749.31;4937137;28;19930;-68
2024/03/30 12:05:53;;;;;;;;;;;;;;;15.96;31.28;93747.97;4943023;28;19934;-66
2024/03/30 12:08:20;;;;;;;;;;;;;;;15.87;30.15;93750.31;4942809;28;20293;-68
2024/03/30 12:10:47;;;;;;;;;;;;;;;15.72;30.17;93743.81;4942599;28;19926;-66
2024/03/30 12:13:12;;;;;;;;;;;;;;;15.72;30.97;93749.16;4943239;29;19987;-69
2024/03/30 12:15:38;;;;;;;;;;;;;;;15.92;29.95;93742.31;4942959;28;19976;-69
2024/03/30 12:18:03;;;;;;;;;;;;;;;15.62;30.17;93743.72;4942588;28;19993;-67
2024/03/30 12:20:28;;;;;;;;;;;;;;;14.98;31.33;93741.50;4941684;29;19976;-69
2024/03/30 12:22:53;;;;;;;;;;;;;;;15.30;30.85;93737.22;4940823;28;20100;-66
2024/03/30 12:25:20;;;;;;;;;;;;;;;15.45;31.52;93739.25;4939074;29;19926;-68
2024/03/30 12:27:45;;;;;;;;;;;;;;;15.44;30.61;93739.50;4941878;28;19926;-67
2024/03/30 12:30:11;;;;;;;;;;;;;;;15.39;30.88;93731.41;4941570;28;19927;-68
2024/03/30 12:32:36;;;;;;;;;;;;;;;14.91;31.42;93732.84;4942823;29;20021;-68
2024/03/30 12:35:02;;;;;;;;;;;;;;;13.58;33.12;93731.59;4942344;28;20323;-68
2024/03/30 12:37:27;;;;;;;;;;;;;;;13.65;34.17;93726.91;4942912;29;19922;-68
2024/03/30 12:39:52;;;;;;;;;;;;;;;13.67;33.30;93732.81;4938102;28;19929;-68
2024/03/30 12:42:21;;;;;;;;;;;;;;;13.29;33.19;93728.97;4941276;28;19958;-68
2024/03/30 12:44:52;;;;;;;;;;;;;;;12.28;36.35;93731.91;4942138;28;20436;-69
2024/03/30 12:47:17;;;;;;;;;;;;;;;11.92;36.57;93741.75;4941626;28;19966;-68
2024/03/30 12:49:43;;;;;;;;;;;;;;;12.70;34.71;93744.22;4942498;29;20024;-68
2024/03/30 12:52:08;;;;;;;;;;;;;;;12.92;34.92;93736.34;4940532;29;19938;-70
2024/03/30 12:54:34;;;;;;;;;;;;;;;12.84;35.54;93734.06;4941681;28;19922;-67